createdAt,value
2022-12-27T00:00:51.592Z,0.80
2022-12-27T00:03:23.841Z,0.60
2022-12-27T00:06:03.002Z,0.50
2022-12-27T00:08:32.573Z,0.50
2022-12-27T00:11:06.175Z,0.40
2022-12-27T00:13:40.364Z,0.60
2022-12-27T00:16:23.248Z,0.43
2022-12-27T00:18:54.220Z,0.40
2022-12-27T00:21:23.788Z,1.57
2022-12-27T00:23:55.055Z,1.40
2022-12-27T00:26:26.976Z,1.83
2022-12-27T00:29:04.663Z,0.40
2022-12-27T00:31:35.084Z,0.80
2022-12-27T00:34:07.367Z,1.33
2022-12-27T00:36:39.694Z,0.60
2022-12-27T00:39:09.125Z,0.40
2022-12-27T00:41:40.734Z,1.37
2022-12-27T00:44:15.068Z,0.40
2022-12-27T00:46:46.213Z,4.00
2022-12-27T00:49:17.625Z,0.43
2022-12-27T00:51:49.506Z,1.60
2022-12-27T00:54:20.289Z,0.90
2022-12-27T00:56:49.669Z,0.60
2022-12-27T00:59:21.720Z,1.13
2022-12-27T01:01:53.580Z,3.43
2022-12-27T01:04:24.713Z,0.60
2022-12-27T01:07:01.232Z,2.93
2022-12-27T01:09:43.192Z,0.50
2022-12-27T01:12:16.117Z,0.50
2022-12-27T01:14:51.538Z,0.40
2022-12-27T01:17:35.348Z,0.40
2022-12-27T01:20:10.866Z,0.50
2022-12-27T01:22:45.737Z,0.80
2022-12-27T01:25:28.485Z,0.40
2022-12-27T01:27:59.389Z,0.40
2022-12-27T01:30:37.973Z,1.43
2022-12-27T01:33:16.145Z,0.60
2022-12-27T01:35:50.220Z,0.60
2022-12-27T01:38:21.335Z,0.30
2022-12-27T01:40:52.144Z,0.50
2022-12-27T01:43:23.206Z,0.40
2022-12-27T01:45:58.693Z,0.50
2022-12-27T01:48:32.299Z,0.40
2022-12-27T01:51:05.467Z,0.50
2022-12-27T01:53:45.000Z,0.50
2022-12-27T01:56:27.832Z,0.50
2022-12-27T01:59:12.362Z,0.60
2022-12-27T02:01:48.887Z,0.50
2022-12-27T02:04:27.477Z,0.97
2022-12-27T02:07:00.111Z,0.60
2022-12-27T02:09:38.360Z,0.57
2022-12-27T02:12:13.133Z,0.50
2022-12-27T02:14:47.575Z,0.60
2022-12-27T02:17:26.546Z,0.50
2022-12-27T02:20:01.597Z,0.60
2022-12-27T02:23:18.480Z,0.60
2022-12-27T02:26:17.652Z,1.70
2022-12-27T02:29:17.659Z,0.50
2022-12-27T02:31:59.875Z,0.43
2022-12-27T02:34:35.140Z,0.80
2022-12-27T02:37:19.431Z,0.90
2022-12-27T02:39:51.005Z,0.63
2022-12-27T02:42:40.739Z,0.80
2022-12-27T02:45:38.542Z,0.70
2022-12-27T02:48:32.044Z,1.73
2022-12-27T02:51:28.475Z,0.40
2022-12-27T02:54:01.930Z,0.53
2022-12-27T02:56:53.715Z,0.50
2022-12-27T03:00:15.716Z,0.50
2022-12-27T03:03:19.610Z,4.10
2022-12-27T03:06:36.953Z,0.50
2022-12-27T03:09:13.280Z,0.60
2022-12-27T03:12:05.744Z,0.60
2022-12-27T03:14:59.581Z,0.70
2022-12-27T03:17:42.835Z,0.67
2022-12-27T03:20:38.370Z,0.40
2022-12-27T03:23:30.828Z,0.60
2022-12-27T03:26:07.830Z,0.67
2022-12-27T03:28:56.227Z,0.70
2022-12-27T03:31:49.922Z,0.40
2022-12-27T03:34:43.763Z,0.60
2022-12-27T03:37:41.631Z,0.80
2022-12-27T03:40:37.338Z,0.70
2022-12-27T03:43:14.408Z,0.80
2022-12-27T03:46:16.917Z,0.70
2022-12-27T03:49:01.143Z,0.73
2022-12-27T03:51:36.400Z,1.27
2022-12-27T03:54:26.912Z,0.60
2022-12-27T03:56:57.283Z,1.17
2022-12-27T03:59:33.127Z,1.43
2022-12-27T04:02:12.079Z,0.70
2022-12-27T04:04:42.581Z,0.60
2022-12-27T04:07:14.248Z,1.37
2022-12-27T04:10:06.582Z,3.50
2022-12-27T04:12:54.137Z,0.77
2022-12-27T04:15:44.180Z,0.47
2022-12-27T04:18:34.165Z,0.70
2022-12-27T04:21:24.259Z,1.50
2022-12-27T04:24:12.957Z,0.63
2022-12-27T04:27:12.682Z,0.60
2022-12-27T04:30:03.656Z,0.50
2022-12-27T04:32:49.618Z,1.50
2022-12-27T04:35:22.527Z,1.67
2022-12-27T04:37:52.310Z,0.60
2022-12-27T04:40:49.596Z,0.50
2022-12-27T04:43:46.876Z,0.80
2022-12-27T04:46:44.223Z,0.53
2022-12-27T04:49:40.687Z,0.80
2022-12-27T04:52:35.639Z,0.50
2022-12-27T04:55:13.386Z,0.60
2022-12-27T04:57:42.786Z,0.60
2022-12-27T05:00:32.911Z,0.70
2022-12-27T05:03:03.699Z,1.37
2022-12-27T05:05:32.381Z,0.90
2022-12-27T05:08:32.217Z,0.60
2022-12-27T05:11:22.335Z,1.23
2022-12-27T05:14:09.977Z,0.87
2022-12-27T05:16:45.765Z,0.97
2022-12-27T05:19:26.254Z,1.50
2022-12-27T05:22:19.437Z,2.00
2022-12-27T05:25:10.252Z,1.03
2022-12-27T05:27:43.370Z,1.17
2022-12-27T05:30:15.008Z,3.53
2022-12-27T05:32:49.722Z,0.90
2022-12-27T05:35:24.777Z,0.80
2022-12-27T05:37:58.771Z,0.73
2022-12-27T05:40:31.165Z,1.13
2022-12-27T05:43:03.352Z,0.70
2022-12-27T05:45:32.667Z,2.30
2022-12-27T05:48:06.984Z,1.57
2022-12-27T05:50:40.958Z,1.13
2022-12-27T05:53:15.147Z,4.80
2022-12-27T05:55:46.833Z,0.77
2022-12-27T05:58:30.747Z,0.90
2022-12-27T06:01:00.885Z,0.73
2022-12-27T06:03:31.090Z,0.80
2022-12-27T06:06:04.413Z,1.33
2022-12-27T06:08:35.848Z,1.47
2022-12-27T06:11:09.073Z,2.20
2022-12-27T06:13:42.147Z,0.80
2022-12-27T06:16:17.620Z,1.17
2022-12-27T06:19:08.281Z,2.10
2022-12-27T06:21:41.064Z,0.60
2022-12-27T06:24:17.069Z,0.97
2022-12-27T06:26:48.014Z,0.93
2022-12-27T06:29:20.155Z,0.70
2022-12-27T06:31:58.841Z,1.63
2022-12-27T06:34:38.002Z,2.40
2022-12-27T06:37:08.977Z,0.50
2022-12-27T06:39:44.672Z,1.07
2022-12-27T06:42:24.876Z,0.60
2022-12-27T06:44:58.709Z,3.60
2022-12-27T06:47:28.953Z,3.33
2022-12-27T06:50:10.683Z,1.17
2022-12-27T06:52:44.595Z,0.80
2022-12-27T06:55:25.196Z,1.60
2022-12-27T06:58:03.426Z,2.50
2022-12-27T07:00:51.739Z,1.20
2022-12-27T07:03:30.069Z,1.43
2022-12-27T07:06:04.080Z,0.70
2022-12-27T07:08:48.304Z,0.80
2022-12-27T07:11:26.801Z,1.60
2022-12-27T07:14:01.570Z,1.23
2022-12-27T07:16:32.329Z,1.80
2022-12-27T07:19:03.088Z,0.80
2022-12-27T07:21:37.053Z,0.70
2022-12-27T07:24:17.862Z,5.00
2022-12-27T07:26:48.726Z,0.80
2022-12-27T07:29:30.033Z,1.10
2022-12-27T07:32:06.275Z,1.90
2022-12-27T07:34:43.590Z,1.60
2022-12-27T07:37:21.320Z,0.87
2022-12-27T07:39:54.474Z,0.50
2022-12-27T07:42:33.795Z,1.03
2022-12-27T07:45:12.457Z,3.90
2022-12-27T07:47:58.779Z,0.97
2022-12-27T07:50:27.556Z,0.83
2022-12-27T07:53:06.717Z,2.53
2022-12-27T07:55:39.428Z,1.10
2022-12-27T07:58:20.618Z,1.30
2022-12-27T08:01:01.326Z,1.50
2022-12-27T08:03:31.059Z,2.20
2022-12-27T08:06:00.298Z,1.03
2022-12-27T08:08:36.979Z,1.40
2022-12-27T08:11:06.968Z,2.77
2022-12-27T08:13:38.319Z,3.43
2022-12-27T08:16:21.311Z,0.93
2022-12-27T08:18:53.158Z,0.70
2022-12-27T08:21:24.578Z,1.00
2022-12-27T08:23:56.423Z,2.20
2022-12-27T08:26:27.027Z,1.13
2022-12-27T08:28:56.883Z,1.03
2022-12-27T08:31:29.198Z,1.90
2022-12-27T08:33:58.834Z,0.70
2022-12-27T08:36:54.038Z,1.07
2022-12-27T08:39:20.225Z,1.03
2022-12-27T08:41:49.448Z,1.20
2022-12-27T08:44:17.786Z,1.20
2022-12-27T08:46:50.604Z,2.10
2022-12-27T08:49:20.082Z,0.90
2022-12-27T08:51:53.465Z,1.33
2022-12-27T08:54:34.721Z,0.80
2022-12-27T08:57:09.275Z,3.43
2022-12-27T08:59:42.843Z,1.13
2022-12-27T09:02:17.095Z,3.67
2022-12-27T09:04:48.777Z,1.00
2022-12-27T09:07:22.767Z,0.73
2022-12-27T09:09:56.754Z,2.30
2022-12-27T09:12:26.684Z,1.77
2022-12-27T09:15:08.840Z,4.63
2022-12-27T09:17:56.151Z,3.33
2022-12-27T09:20:24.772Z,3.47
2022-12-27T09:23:02.351Z,2.10
2022-12-27T09:25:36.359Z,2.63
2022-12-27T09:28:08.094Z,1.47
2022-12-27T09:30:41.301Z,2.77
2022-12-27T09:33:10.872Z,1.70
2022-12-27T09:35:39.747Z,6.67
2022-12-27T09:38:11.570Z,1.43
2022-12-27T09:40:55.437Z,0.90
2022-12-27T09:43:27.955Z,1.00
2022-12-27T09:46:06.525Z,1.20
2022-12-27T09:48:39.749Z,3.13
2022-12-27T09:51:25.498Z,3.17
2022-12-27T09:54:04.547Z,5.50
2022-12-27T09:57:09.537Z,1.47
2022-12-27T09:59:35.438Z,1.40
2022-12-27T10:02:12.687Z,1.10
2022-12-27T10:05:19.324Z,1.77
2022-12-27T10:07:50.192Z,2.10
2022-12-27T10:10:29.274Z,2.40
2022-12-27T10:16:33.588Z,2.40
2022-12-27T10:19:21.375Z,1.60
2022-12-27T10:22:01.048Z,2.33
2022-12-27T10:24:37.044Z,5.30
2022-12-27T10:27:18.256Z,1.27
2022-12-27T10:29:50.833Z,1.27
2022-12-27T10:32:26.488Z,1.53
2022-12-27T10:35:01.738Z,1.77
2022-12-27T10:37:35.300Z,1.13
2022-12-27T10:40:23.714Z,3.90
2022-12-27T10:43:06.690Z,5.67
2022-12-27T10:45:59.155Z,4.03
2022-12-27T10:49:19.443Z,4.67
2022-12-27T10:51:36.507Z,6.93
2022-12-27T10:54:05.590Z,1.53
2022-12-27T10:56:36.156Z,3.10
2022-12-27T10:59:13.317Z,3.30
2022-12-27T11:01:43.191Z,3.23
2022-12-27T11:04:20.680Z,3.50
2022-12-27T11:06:51.709Z,7.00
2022-12-27T11:09:31.426Z,5.40
2022-12-27T11:12:20.598Z,2.57
2022-12-27T11:14:57.157Z,1.57
2022-12-27T11:17:28.533Z,11.37
2022-12-27T11:19:57.787Z,2.80
2022-12-27T11:22:26.808Z,4.20
2022-12-27T11:24:57.406Z,1.33
2022-12-27T11:27:27.312Z,2.03
2022-12-27T11:29:58.045Z,1.63
2022-12-27T11:32:27.675Z,1.17
2022-12-27T11:34:57.942Z,1.20
2022-12-27T11:37:28.263Z,1.27
2022-12-27T11:40:12.147Z,1.80
2022-12-27T11:42:43.236Z,1.83
2022-12-27T11:45:14.193Z,1.07
2022-12-27T11:47:47.059Z,4.33
2022-12-27T11:50:32.865Z,1.50
2022-12-27T11:53:11.107Z,2.00
2022-12-27T11:55:58.525Z,2.90
2022-12-27T11:59:00.020Z,3.87
2022-12-27T12:01:45.329Z,1.50
2022-12-27T12:04:52.420Z,1.77
2022-12-27T12:07:43.301Z,4.90
2022-12-27T12:10:24.025Z,1.37
2022-12-27T12:13:31.731Z,2.73
2022-12-27T12:16:25.396Z,2.17
2022-12-27T12:19:09.865Z,1.73
2022-12-27T12:21:58.869Z,1.60
2022-12-27T12:25:02.484Z,6.80
2022-12-27T12:27:50.716Z,2.50
2022-12-27T12:31:03.919Z,5.10
2022-12-27T12:34:17.830Z,2.90
2022-12-27T12:37:03.424Z,4.33
2022-12-27T12:39:58.090Z,3.77
2022-12-27T12:42:41.345Z,8.73
2022-12-27T12:45:45.741Z,4.33
2022-12-27T12:48:46.878Z,1.30
2022-12-27T12:51:43.822Z,2.37
2022-12-27T12:54:36.726Z,3.37
2022-12-27T12:57:19.827Z,2.47
2022-12-27T13:00:08.941Z,4.43
2022-12-27T13:03:10.545Z,1.97
2022-12-27T13:05:50.010Z,3.90
2022-12-27T13:08:37.602Z,3.00
2022-12-27T13:11:24.769Z,6.13
2022-12-27T13:14:18.868Z,4.70
2022-12-27T13:17:08.311Z,4.53
2022-12-27T13:20:02.345Z,5.03
2022-12-27T13:22:44.721Z,4.43
2022-12-27T13:25:28.702Z,2.40
2022-12-27T13:28:09.251Z,2.13
2022-12-27T13:30:43.790Z,4.53
2022-12-27T13:33:26.232Z,1.27
2022-12-27T13:36:20.258Z,1.83
2022-12-27T13:39:12.477Z,2.40
2022-12-27T13:41:56.641Z,3.27
2022-12-27T13:44:50.425Z,5.90
2022-12-27T13:48:04.839Z,2.53
2022-12-27T13:51:20.340Z,3.03
2022-12-27T13:54:16.847Z,3.27
2022-12-27T13:56:55.643Z,1.80
2022-12-27T13:59:48.240Z,2.20
2022-12-27T14:03:20.215Z,2.73
2022-12-27T14:06:49.944Z,6.90
2022-12-27T14:09:33.813Z,3.33
2022-12-27T14:12:31.966Z,3.53
2022-12-27T14:15:19.019Z,2.90
2022-12-27T14:18:00.532Z,2.90
2022-12-27T14:20:55.385Z,3.33
2022-12-27T14:24:05.197Z,4.10
2022-12-27T14:27:14.851Z,5.97
2022-12-27T14:30:19.384Z,5.43
2022-12-27T14:33:28.061Z,4.20
2022-12-27T14:36:54.084Z,2.83
2022-12-27T14:40:13.344Z,3.37
2022-12-27T14:43:17.844Z,2.63
2022-12-27T14:46:28.062Z,3.90
2022-12-27T14:49:25.431Z,3.23
2022-12-27T14:52:44.267Z,2.77
2022-12-27T14:55:37.627Z,3.40
2022-12-27T14:58:22.283Z,1.60
2022-12-27T15:01:15.052Z,2.13
2022-12-27T15:04:00.653Z,2.73
2022-12-27T15:06:52.480Z,1.83
2022-12-27T15:09:34.467Z,4.83
2022-12-27T15:12:23.249Z,3.87
2022-12-27T15:15:15.687Z,3.73
2022-12-27T15:18:15.639Z,2.83
2022-12-27T15:21:14.539Z,4.43
2022-12-27T15:23:55.012Z,4.83
2022-12-27T15:26:37.495Z,5.00
2022-12-27T15:29:27.156Z,4.20
2022-12-27T15:32:23.487Z,2.50
2022-12-27T15:35:04.147Z,7.80
2022-12-27T15:38:15.137Z,6.40
2022-12-27T15:41:15.007Z,3.83
2022-12-27T15:44:14.999Z,7.80
2022-12-27T15:47:08.431Z,3.03
2022-12-27T15:50:02.568Z,3.33
2022-12-27T15:53:01.766Z,3.30
2022-12-27T15:55:55.429Z,3.10
2022-12-27T15:58:32.370Z,3.43
2022-12-27T16:01:31.239Z,3.50
2022-12-27T16:04:47.648Z,7.63
2022-12-27T16:10:48.500Z,2.57
2022-12-27T16:13:43.265Z,2.50
2022-12-27T16:16:58.613Z,3.60
2022-12-27T16:20:04.177Z,3.70
2022-12-27T16:22:44.689Z,3.60
2022-12-27T16:25:32.284Z,4.33
2022-12-27T16:28:05.608Z,1.93
2022-12-27T16:31:07.732Z,3.57
2022-12-27T16:33:46.913Z,4.40
2022-12-27T16:36:25.781Z,3.33
2022-12-27T16:39:28.298Z,4.13
2022-12-27T16:42:11.488Z,2.70
2022-12-27T16:45:26.127Z,4.37
2022-12-27T16:48:15.895Z,5.10
2022-12-27T16:51:04.064Z,3.87
2022-12-27T16:53:51.826Z,6.97
2022-12-27T16:56:25.690Z,3.90
2022-12-27T16:59:02.253Z,7.30
2022-12-27T17:02:16.409Z,12.53
2022-12-27T17:05:04.923Z,12.47
2022-12-27T17:08:19.388Z,14.20
2022-12-27T17:11:28.529Z,10.23
2022-12-27T17:14:02.743Z,11.30
2022-12-27T17:16:50.259Z,15.80
2022-12-27T17:19:29.204Z,8.37
2022-12-27T17:22:08.400Z,10.87
2022-12-27T17:24:38.307Z,7.23
2022-12-27T17:27:17.471Z,6.23
2022-12-27T17:30:01.476Z,7.77
2022-12-27T17:32:53.037Z,5.00
2022-12-27T17:35:32.880Z,4.10
2022-12-27T17:38:15.203Z,4.80
2022-12-27T17:40:54.723Z,4.40
2022-12-27T17:44:03.105Z,5.10
2022-12-27T17:46:43.076Z,4.57
2022-12-27T17:49:19.557Z,4.90
2022-12-27T17:52:11.050Z,3.47
2022-12-27T17:55:03.737Z,5.00
2022-12-27T17:58:04.517Z,4.93
2022-12-27T18:00:37.729Z,5.87
2022-12-27T18:03:18.171Z,5.40
2022-12-27T18:05:59.174Z,7.70
2022-12-27T18:08:34.315Z,6.97
2022-12-27T18:11:12.647Z,12.20
2022-12-27T18:13:56.804Z,9.50
2022-12-27T18:16:33.484Z,5.80
2022-12-27T18:19:05.747Z,11.13
2022-12-27T18:21:38.596Z,8.83
2022-12-27T18:24:29.241Z,5.80
2022-12-27T18:27:08.807Z,6.30
2022-12-27T18:29:44.369Z,5.10
2022-12-27T18:32:27.298Z,4.30
2022-12-27T18:34:58.911Z,4.73
2022-12-27T18:37:38.803Z,4.33
2022-12-27T18:40:25.492Z,4.13
2022-12-27T18:42:59.817Z,5.47
2022-12-27T18:45:31.238Z,3.80
2022-12-27T18:48:03.491Z,8.97
2022-12-27T18:50:48.719Z,8.53
2022-12-27T18:53:29.120Z,3.40
2022-12-27T18:56:03.184Z,4.03
2022-12-27T18:58:34.390Z,2.77
2022-12-27T19:01:06.383Z,7.40
2022-12-27T19:03:52.843Z,5.80
2022-12-27T19:06:26.989Z,7.53
2022-12-27T19:09:06.175Z,9.93
2022-12-27T19:11:52.879Z,9.03
2022-12-27T19:14:33.640Z,12.50
2022-12-27T19:17:10.976Z,5.53
2022-12-27T19:19:43.013Z,5.40
2022-12-27T19:22:33.429Z,5.03
2022-12-27T19:25:17.198Z,4.63
2022-12-27T19:28:06.211Z,4.17
2022-12-27T19:30:47.633Z,10.63
2022-12-27T19:33:29.436Z,4.40
2022-12-27T19:36:08.051Z,4.60
2022-12-27T19:38:48.140Z,3.50
2022-12-27T19:41:34.543Z,4.53
2022-12-27T19:44:12.517Z,5.47
2022-12-27T19:46:43.556Z,4.70
2022-12-27T19:49:44.786Z,7.00
2022-12-27T19:52:31.391Z,6.27
2022-12-27T19:55:04.104Z,8.93
2022-12-27T19:57:50.539Z,9.80
2022-12-27T20:00:30.776Z,8.30
2022-12-27T20:03:08.858Z,6.30
2022-12-27T20:06:11.844Z,12.70
2022-12-27T20:08:39.752Z,7.50
2022-12-27T20:11:19.561Z,6.07
2022-12-27T20:14:04.483Z,7.77
2022-12-27T20:16:38.432Z,4.93
2022-12-27T20:19:20.787Z,7.07
2022-12-27T20:22:01.493Z,6.50
2022-12-27T20:24:40.299Z,7.40
2022-12-27T20:27:23.828Z,6.17
2022-12-27T20:30:06.127Z,4.00
2022-12-27T20:32:44.341Z,5.63
2022-12-27T20:35:22.134Z,7.90
2022-12-27T20:37:58.445Z,5.70
2022-12-27T20:40:28.212Z,6.97
2022-12-27T20:43:01.866Z,6.30
2022-12-27T20:45:37.944Z,10.77
2022-12-27T20:48:11.466Z,4.50
2022-12-27T20:50:49.889Z,6.30
2022-12-27T20:53:28.118Z,5.43
2022-12-27T20:56:00.897Z,4.77
2022-12-27T20:58:48.403Z,5.40
2022-12-27T21:01:33.290Z,5.30
2022-12-27T21:04:06.924Z,6.53
2022-12-27T21:06:45.350Z,5.07
2022-12-27T21:09:13.533Z,9.37
2022-12-27T21:11:43.054Z,7.80
2022-12-27T21:14:22.358Z,7.70
2022-12-27T21:17:03.740Z,5.17
2022-12-27T21:19:36.658Z,5.43
2022-12-27T21:22:07.132Z,5.37
2022-12-27T21:24:36.640Z,6.30
2022-12-27T21:27:07.273Z,5.47
2022-12-27T21:29:39.241Z,6.43
2022-12-27T21:32:25.050Z,8.87
2022-12-27T21:34:55.510Z,7.30
2022-12-27T21:37:28.760Z,5.83
2022-12-27T21:40:01.253Z,6.40
2022-12-27T21:42:42.148Z,7.13
2022-12-27T21:45:19.453Z,7.30
2022-12-27T21:48:03.419Z,9.70
2022-12-27T21:50:38.077Z,8.57
2022-12-27T21:53:08.500Z,10.63
2022-12-27T21:55:40.058Z,6.60
2022-12-27T21:58:10.811Z,7.43
2022-12-27T22:00:45.056Z,13.93
2022-12-27T22:03:24.186Z,7.63
2022-12-27T22:05:56.480Z,7.47
2022-12-27T22:08:28.459Z,12.40
2022-12-27T22:11:06.196Z,12.43
2022-12-27T22:13:38.739Z,11.00
2022-12-27T22:16:21.697Z,11.63
2022-12-27T22:19:02.586Z,13.57
2022-12-27T22:21:42.854Z,10.50
2022-12-27T22:24:20.000Z,14.33
2022-12-27T22:26:58.845Z,13.33
2022-12-27T22:29:38.035Z,12.00
2022-12-27T22:32:14.910Z,13.53
2022-12-27T22:35:01.373Z,8.80
2022-12-27T22:37:32.157Z,11.33
2022-12-27T22:40:00.452Z,10.20
2022-12-27T22:42:35.319Z,13.23
2022-12-27T22:45:14.244Z,11.10
2022-12-27T22:47:54.757Z,10.67
2022-12-27T22:50:25.893Z,10.97
2022-12-27T22:52:56.554Z,15.83
2022-12-27T22:55:28.156Z,12.10
2022-12-27T22:58:08.944Z,16.07
2022-12-27T23:00:46.116Z,10.13
2022-12-27T23:03:19.817Z,8.37
2022-12-27T23:06:03.144Z,10.27
2022-12-27T23:08:32.638Z,9.40
2022-12-27T23:11:08.255Z,9.70
2022-12-27T23:13:36.734Z,12.93
2022-12-27T23:16:07.715Z,11.60
2022-12-27T23:18:41.637Z,11.23
2022-12-27T23:21:21.863Z,9.37
2022-12-27T23:24:02.987Z,11.83
2022-12-27T23:26:40.531Z,10.20
2022-12-27T23:29:15.190Z,10.67
2022-12-27T23:31:54.362Z,9.50
2022-12-27T23:34:29.340Z,7.03
2022-12-27T23:37:08.934Z,11.53
2022-12-27T23:39:44.978Z,9.33
2022-12-27T23:42:15.058Z,6.43
2022-12-27T23:44:46.390Z,9.73
2022-12-27T23:47:16.034Z,9.23
2022-12-27T23:49:49.860Z,8.40
2022-12-27T23:52:33.430Z,11.10
2022-12-27T23:55:10.141Z,9.00
2022-12-27T23:57:47.725Z,9.63
